createdAt,value
2023-01-20T00:01:36.505Z,3.00
2023-01-20T00:04:03.695Z,3.00
2023-01-20T00:06:30.812Z,3.10
2023-01-20T00:09:01.430Z,3.10
2023-01-20T00:11:31.527Z,3.10
2023-01-20T00:14:01.587Z,3.10
2023-01-20T00:16:31.136Z,3.10
2023-01-20T00:18:58.690Z,3.20
2023-01-20T00:21:26.006Z,3.10
2023-01-20T00:23:53.141Z,3.20
2023-01-20T00:26:22.888Z,3.20
2023-01-20T00:28:52.987Z,3.20
2023-01-20T00:31:28.654Z,3.20
2023-01-20T00:33:58.231Z,3.20
2023-01-20T00:36:26.857Z,3.20
2023-01-20T00:38:54.300Z,3.20
2023-01-20T00:41:21.391Z,3.20
2023-01-20T00:43:48.395Z,3.20
2023-01-20T00:46:16.226Z,3.20
2023-01-20T00:48:43.593Z,2.90
2023-01-20T00:51:11.440Z,3.30
2023-01-20T00:53:38.721Z,3.30
2023-01-20T00:56:06.460Z,3.30
2023-01-20T00:58:33.917Z,3.20
2023-01-20T01:01:01.471Z,3.20
2023-01-20T01:03:29.086Z,3.20
2023-01-20T01:06:09.678Z,3.30
2023-01-20T01:08:37.071Z,3.30
2023-01-20T01:11:05.297Z,3.30
2023-01-20T01:13:33.364Z,3.30
2023-01-20T01:16:00.915Z,3.30
2023-01-20T01:18:28.178Z,3.30
2023-01-20T01:20:56.828Z,3.30
2023-01-20T01:23:23.903Z,3.30
2023-01-20T01:25:51.183Z,3.30
2023-01-20T01:28:18.323Z,3.20
2023-01-20T01:30:45.745Z,3.30
2023-01-20T01:33:13.110Z,3.30
2023-01-20T01:35:40.172Z,3.30
2023-01-20T01:38:07.155Z,3.30
2023-01-20T01:40:35.202Z,3.30
2023-01-20T01:43:02.295Z,3.30
2023-01-20T01:45:30.676Z,3.20
2023-01-20T01:48:10.699Z,3.20
2023-01-20T01:50:47.469Z,3.30
2023-01-20T01:53:15.991Z,3.30
2023-01-20T01:55:49.976Z,3.30
2023-01-20T01:58:20.296Z,3.40
2023-01-20T02:00:47.716Z,3.20
2023-01-20T02:03:15.079Z,3.20
2023-01-20T02:05:43.988Z,3.20
2023-01-20T02:08:11.169Z,3.30
2023-01-20T02:10:38.247Z,3.30
2023-01-20T02:13:05.762Z,3.30
2023-01-20T02:16:04.432Z,3.30
2023-01-20T02:18:41.907Z,3.30
2023-01-20T02:21:27.255Z,3.30
2023-01-20T02:24:18.476Z,3.30
2023-01-20T02:27:11.541Z,3.40
2023-01-20T02:30:18.542Z,3.30
2023-01-20T02:33:09.979Z,3.30
2023-01-20T02:35:48.052Z,3.40
2023-01-20T02:38:51.222Z,3.40
2023-01-20T02:41:34.449Z,3.30
2023-01-20T02:44:11.576Z,3.40
2023-01-20T02:46:50.788Z,3.40
2023-01-20T02:49:31.846Z,3.40
2023-01-20T02:52:12.113Z,3.40
2023-01-20T02:54:42.313Z,3.40
2023-01-20T02:57:14.379Z,3.40
2023-01-20T02:59:46.381Z,3.50
2023-01-20T03:02:20.434Z,3.40
2023-01-20T03:04:50.122Z,3.50
2023-01-20T03:07:21.563Z,3.60
2023-01-20T03:09:51.757Z,3.50
2023-01-20T03:12:31.787Z,3.60
2023-01-20T03:14:59.057Z,3.60
2023-01-20T03:17:26.517Z,3.60
2023-01-20T03:19:53.897Z,3.60
2023-01-20T03:22:21.196Z,3.60
2023-01-20T03:24:49.275Z,3.60
2023-01-20T03:27:16.460Z,3.60
2023-01-20T03:29:43.544Z,3.70
2023-01-20T03:32:11.701Z,3.70
2023-01-20T03:34:41.879Z,3.70
2023-01-20T03:37:11.328Z,3.70
2023-01-20T03:39:40.108Z,3.70
2023-01-20T03:42:16.947Z,3.70
2023-01-20T03:45:24.664Z,3.70
2023-01-20T03:48:06.249Z,3.60
2023-01-20T03:51:01.305Z,3.70
2023-01-20T03:53:51.621Z,3.70
2023-01-20T03:56:28.580Z,3.70
2023-01-20T03:58:58.034Z,3.70
2023-01-20T04:01:34.446Z,3.70
2023-01-20T04:04:04.136Z,3.80
2023-01-20T04:06:34.286Z,3.70
2023-01-20T04:09:15.636Z,3.70
2023-01-20T04:11:42.783Z,3.70
2023-01-20T04:14:10.211Z,3.70
2023-01-20T04:16:38.055Z,3.70
2023-01-20T04:19:05.074Z,3.70
2023-01-20T04:21:43.984Z,3.70
2023-01-20T04:24:32.479Z,3.60
2023-01-20T04:26:59.689Z,3.60
2023-01-20T04:29:26.719Z,3.60
2023-01-20T04:32:03.790Z,3.70
2023-01-20T04:34:31.089Z,3.60
2023-01-20T04:36:58.198Z,3.60
2023-01-20T04:39:25.320Z,3.60
2023-01-20T04:41:52.367Z,3.60
2023-01-20T04:44:19.454Z,3.70
2023-01-20T04:46:47.524Z,3.60
2023-01-20T04:49:15.100Z,3.60
2023-01-20T04:51:42.331Z,3.70
2023-01-20T04:54:09.444Z,3.70
2023-01-20T04:56:36.492Z,3.70
2023-01-20T04:59:03.584Z,3.70
2023-01-20T05:01:30.720Z,3.70
2023-01-20T05:03:57.773Z,3.70
2023-01-20T05:06:24.823Z,3.60
2023-01-20T05:08:52.216Z,3.70
2023-01-20T05:11:19.540Z,3.60
2023-01-20T05:13:46.707Z,3.60
2023-01-20T05:16:14.169Z,3.60
2023-01-20T05:18:41.401Z,3.60
2023-01-20T05:21:23.825Z,3.60
2023-01-20T05:23:53.497Z,3.60
2023-01-20T05:26:22.387Z,3.60
2023-01-20T05:28:49.595Z,3.60
2023-01-20T05:31:17.044Z,3.60
2023-01-20T05:33:44.683Z,3.50
2023-01-20T05:36:12.703Z,3.50
2023-01-20T05:38:39.894Z,3.60
2023-01-20T05:41:08.827Z,3.60
2023-01-20T05:43:36.780Z,3.60
2023-01-20T05:46:04.985Z,3.60
2023-01-20T05:48:33.098Z,3.50
2023-01-20T05:51:00.266Z,3.60
2023-01-20T05:53:27.395Z,3.50
2023-01-20T05:56:05.924Z,3.50
2023-01-20T05:58:33.698Z,3.50
2023-01-20T06:01:09.380Z,3.60
2023-01-20T06:03:36.722Z,3.60
2023-01-20T06:06:05.895Z,3.50
2023-01-20T06:08:34.109Z,3.50
2023-01-20T06:11:01.181Z,3.50
2023-01-20T06:13:28.357Z,3.60
2023-01-20T06:15:56.281Z,3.60
2023-01-20T06:18:24.409Z,3.60
2023-01-20T06:20:51.587Z,3.60
2023-01-20T06:23:18.747Z,3.60
2023-01-20T06:25:45.845Z,3.60
2023-01-20T06:28:13.032Z,3.60
2023-01-20T06:30:43.270Z,3.60
2023-01-20T06:33:11.799Z,3.50
2023-01-20T06:35:38.874Z,3.50
2023-01-20T06:38:06.287Z,3.50
2023-01-20T06:40:33.442Z,3.60
2023-01-20T06:43:00.921Z,3.50
2023-01-20T06:45:29.694Z,3.60
2023-01-20T06:47:56.746Z,3.60
2023-01-20T06:50:23.858Z,3.50
2023-01-20T06:52:50.966Z,3.60
2023-01-20T06:55:18.331Z,3.70
2023-01-20T06:57:45.556Z,3.70
2023-01-20T07:00:13.476Z,3.70
2023-01-20T07:02:40.643Z,3.70
2023-01-20T07:05:09.707Z,3.80
2023-01-20T07:07:36.906Z,3.80
2023-01-20T07:10:04.568Z,3.90
2023-01-20T07:12:31.688Z,3.80
2023-01-20T07:14:58.768Z,3.80
2023-01-20T07:17:26.887Z,3.80
2023-01-20T07:19:53.913Z,3.80
2023-01-20T07:22:20.975Z,4.00
2023-01-20T07:24:48.176Z,3.90
2023-01-20T07:27:15.255Z,3.90
2023-01-20T07:29:42.680Z,3.90
2023-01-20T07:32:09.746Z,3.90
2023-01-20T07:34:36.873Z,3.90
2023-01-20T07:37:04.175Z,3.90
2023-01-20T07:39:31.306Z,3.90
2023-01-20T07:41:58.358Z,3.90
2023-01-20T07:44:25.405Z,3.90
2023-01-20T07:46:52.439Z,4.00
2023-01-20T07:49:19.581Z,3.90
2023-01-20T07:51:46.652Z,4.00
2023-01-20T07:54:13.774Z,3.90
2023-01-20T07:56:40.805Z,3.90
2023-01-20T07:59:07.861Z,4.00
2023-01-20T08:01:34.968Z,4.00
2023-01-20T08:04:02.311Z,3.90
2023-01-20T08:06:30.282Z,4.00
2023-01-20T08:09:01.731Z,4.00
2023-01-20T08:11:29.598Z,3.90
2023-01-20T08:13:56.765Z,3.90
2023-01-20T08:16:24.012Z,4.00
2023-01-20T08:18:54.806Z,4.00
2023-01-20T08:21:30.962Z,4.00
2023-01-20T08:23:59.945Z,4.00
2023-01-20T08:26:29.634Z,3.90
2023-01-20T08:29:06.297Z,4.00
2023-01-20T08:31:33.611Z,4.10
2023-01-20T08:34:01.145Z,4.00
2023-01-20T08:36:31.207Z,4.10
2023-01-20T08:39:02.187Z,4.10
2023-01-20T08:41:33.335Z,4.10
2023-01-20T08:44:04.599Z,4.20
2023-01-20T08:46:32.350Z,4.30
2023-01-20T08:48:59.457Z,4.10
2023-01-20T08:51:31.248Z,4.20
2023-01-20T08:53:59.020Z,4.30
2023-01-20T08:56:26.839Z,4.30
2023-01-20T08:58:54.198Z,4.30
2023-01-20T09:01:24.097Z,4.30
2023-01-20T09:04:04.950Z,4.30
2023-01-20T09:06:46.296Z,4.30
2023-01-20T09:09:15.431Z,4.30
2023-01-20T09:11:50.593Z,4.30
2023-01-20T09:14:21.660Z,4.30
2023-01-20T09:16:49.466Z,4.30
2023-01-20T09:19:18.075Z,4.30
2023-01-20T09:21:45.313Z,4.20
2023-01-20T09:24:12.395Z,4.30
2023-01-20T09:26:39.628Z,4.20
2023-01-20T09:29:11.157Z,4.20
2023-01-20T09:31:45.877Z,4.40
2023-01-20T09:34:21.585Z,4.30
2023-01-20T09:36:58.035Z,4.40
2023-01-20T09:39:54.623Z,4.30
2023-01-20T09:43:04.483Z,4.40
2023-01-20T09:45:56.953Z,4.40
2023-01-20T09:49:03.936Z,4.50
2023-01-20T09:52:00.078Z,4.50
2023-01-20T09:54:33.541Z,4.50
2023-01-20T09:57:01.853Z,4.50
2023-01-20T09:59:39.283Z,4.50
2023-01-20T10:02:17.882Z,4.60
2023-01-20T10:04:57.360Z,4.60
2023-01-20T10:07:27.242Z,4.70
2023-01-20T10:10:10.974Z,4.60
2023-01-20T10:12:58.359Z,4.60
2023-01-20T10:15:35.605Z,4.60
2023-01-20T10:18:09.463Z,4.60
2023-01-20T10:20:47.208Z,4.60
2023-01-20T10:23:33.276Z,4.60
2023-01-20T10:26:09.824Z,4.60
2023-01-20T10:28:45.759Z,4.70
2023-01-20T10:31:18.112Z,4.80
2023-01-20T10:33:45.876Z,4.80
2023-01-20T10:36:24.354Z,4.90
2023-01-20T10:38:58.184Z,4.90
2023-01-20T10:41:31.207Z,4.90
2023-01-20T10:43:59.158Z,4.80
2023-01-20T10:46:56.461Z,4.80
2023-01-20T10:49:57.266Z,4.90
2023-01-20T10:52:47.322Z,4.90
2023-01-20T10:55:36.109Z,5.00
2023-01-20T10:58:14.999Z,4.90
2023-01-20T11:00:43.048Z,5.00
2023-01-20T11:03:16.023Z,5.00
2023-01-20T11:05:45.523Z,5.10
2023-01-20T11:08:19.537Z,5.00
2023-01-20T11:10:51.806Z,5.00
2023-01-20T11:13:19.059Z,5.00
2023-01-20T11:15:48.438Z,4.90
2023-01-20T11:18:15.662Z,4.90
2023-01-20T11:20:58.753Z,4.90
2023-01-20T11:23:40.608Z,4.80
2023-01-20T11:26:19.772Z,4.80
2023-01-20T11:29:21.936Z,4.90
2023-01-20T11:31:54.689Z,4.90
2023-01-20T11:34:33.430Z,4.90
2023-01-20T11:37:06.439Z,5.00
2023-01-20T11:39:42.178Z,4.90
2023-01-20T11:42:14.823Z,5.10
2023-01-20T11:44:50.006Z,5.00
2023-01-20T11:47:30.954Z,5.20
2023-01-20T11:50:10.048Z,5.30
2023-01-20T11:52:47.325Z,5.30
2023-01-20T11:55:20.913Z,5.20
2023-01-20T11:58:03.532Z,5.20
2023-01-20T12:00:52.282Z,5.10
2023-01-20T12:03:46.233Z,5.20
2023-01-20T12:06:33.736Z,5.10
2023-01-20T12:09:06.385Z,5.10
2023-01-20T12:11:50.667Z,5.00
2023-01-20T12:14:23.632Z,5.00
2023-01-20T12:17:14.588Z,5.00
2023-01-20T12:20:05.779Z,4.90
2023-01-20T12:22:45.535Z,4.90
2023-01-20T12:25:22.144Z,5.00
2023-01-20T12:27:56.769Z,5.10
2023-01-20T12:30:38.445Z,5.10
2023-01-20T12:33:14.140Z,5.00
2023-01-20T12:35:54.421Z,5.00
2023-01-20T12:38:23.324Z,5.00
2023-01-20T12:40:54.805Z,5.00
2023-01-20T12:43:34.184Z,4.90
2023-01-20T12:46:10.283Z,4.90
2023-01-20T12:48:43.190Z,4.80
2023-01-20T12:51:57.412Z,4.80
2023-01-20T12:54:48.750Z,4.80
2023-01-20T12:57:41.207Z,4.80
2023-01-20T13:00:31.307Z,4.80
2023-01-20T13:03:17.250Z,4.70
2023-01-20T13:06:05.950Z,4.70
2023-01-20T13:08:41.617Z,4.60
2023-01-20T13:11:31.857Z,4.60
2023-01-20T13:14:13.835Z,4.60
2023-01-20T13:16:53.555Z,4.70
2023-01-20T13:19:28.704Z,4.70
2023-01-20T13:22:07.272Z,4.60
2023-01-20T13:24:35.701Z,4.50
2023-01-20T13:27:03.820Z,4.60
2023-01-20T13:29:36.636Z,4.60
2023-01-20T13:32:24.533Z,4.50
2023-01-20T13:34:51.637Z,4.40
2023-01-20T13:37:26.597Z,4.40
2023-01-20T13:39:55.043Z,4.40
2023-01-20T13:42:37.436Z,4.40
2023-01-20T13:45:13.416Z,4.50
2023-01-20T13:47:54.916Z,4.40
2023-01-20T13:50:26.602Z,4.30
2023-01-20T13:52:53.711Z,4.20
2023-01-20T13:55:45.604Z,4.20
2023-01-20T13:58:17.817Z,4.20
2023-01-20T14:00:45.949Z,4.10
2023-01-20T14:03:35.291Z,4.10
2023-01-20T14:06:21.162Z,4.20
2023-01-20T14:08:51.218Z,4.10
2023-01-20T14:11:21.897Z,4.10
2023-01-20T14:14:01.957Z,4.10
2023-01-20T14:16:30.268Z,4.10
2023-01-20T14:19:00.495Z,4.00
2023-01-20T14:21:29.735Z,4.00
2023-01-20T14:23:57.200Z,4.00
2023-01-20T14:26:25.907Z,4.00
2023-01-20T14:28:55.670Z,3.90
2023-01-20T14:31:46.473Z,3.90
2023-01-20T14:34:32.766Z,3.90
2023-01-20T14:37:17.393Z,3.80
2023-01-20T14:39:48.957Z,3.80
2023-01-20T14:42:22.408Z,3.80
2023-01-20T14:44:51.545Z,3.80
2023-01-20T14:47:20.645Z,3.80
2023-01-20T14:49:49.543Z,3.80
2023-01-20T14:52:28.788Z,3.80
2023-01-20T14:54:56.844Z,3.80
2023-01-20T14:57:34.118Z,3.80
2023-01-20T15:00:11.474Z,3.80
2023-01-20T15:02:40.166Z,3.70
2023-01-20T15:05:35.065Z,3.80
2023-01-20T15:08:26.248Z,3.70
2023-01-20T15:11:21.426Z,3.80
2023-01-20T15:14:01.257Z,3.70
2023-01-20T15:16:30.792Z,3.70
2023-01-20T15:19:20.171Z,3.60
2023-01-20T15:21:58.601Z,3.70
2023-01-20T15:24:37.472Z,3.60
2023-01-20T15:27:28.903Z,3.60
2023-01-20T15:30:16.154Z,3.50
2023-01-20T15:32:43.373Z,3.50
2023-01-20T15:35:15.346Z,3.60
2023-01-20T15:37:43.792Z,3.60
2023-01-20T15:40:15.929Z,3.60
2023-01-20T15:42:43.242Z,3.60
2023-01-20T15:45:14.443Z,3.50
2023-01-20T15:47:42.139Z,3.70
2023-01-20T15:50:35.619Z,3.60
2023-01-20T15:53:03.565Z,3.70
2023-01-20T15:55:30.789Z,3.60
2023-01-20T15:57:57.876Z,3.60
2023-01-20T16:00:24.985Z,3.60
2023-01-20T16:02:52.349Z,3.60
2023-01-20T16:05:19.809Z,3.60
2023-01-20T16:07:47.928Z,3.60
2023-01-20T16:10:17.448Z,3.60
2023-01-20T16:12:46.448Z,3.60
2023-01-20T16:15:15.404Z,3.60
2023-01-20T16:17:42.825Z,3.60
2023-01-20T16:20:22.342Z,3.60
2023-01-20T16:22:49.470Z,3.50
2023-01-20T16:25:16.665Z,3.50
2023-01-20T16:27:44.293Z,3.50
2023-01-20T16:30:22.983Z,3.60
2023-01-20T16:32:51.071Z,3.70
2023-01-20T16:35:19.336Z,3.60
2023-01-20T16:37:47.931Z,3.60
2023-01-20T16:40:20.326Z,3.50
2023-01-20T16:42:47.944Z,3.50
2023-01-20T16:45:24.253Z,3.50
2023-01-20T16:47:51.557Z,3.40
2023-01-20T16:50:18.951Z,3.40
2023-01-20T16:52:46.719Z,3.40
2023-01-20T16:55:14.036Z,3.40
2023-01-20T16:57:42.073Z,3.40
2023-01-20T17:00:10.400Z,3.30
2023-01-20T17:02:39.195Z,3.30
2023-01-20T17:05:08.226Z,3.30
2023-01-20T17:07:36.020Z,3.40
2023-01-20T17:10:03.521Z,3.30
2023-01-20T17:12:31.791Z,3.30
2023-01-20T17:14:59.116Z,3.30
2023-01-20T17:17:26.188Z,3.30
2023-01-20T17:19:53.240Z,3.30
2023-01-20T17:22:20.382Z,3.40
2023-01-20T17:24:48.276Z,3.30
2023-01-20T17:27:15.319Z,3.30
2023-01-20T17:29:42.539Z,3.40
2023-01-20T17:32:09.904Z,3.50
2023-01-20T17:34:37.124Z,3.40
2023-01-20T17:37:04.277Z,3.30
2023-01-20T17:39:31.369Z,3.40
2023-01-20T17:41:58.378Z,3.40
2023-01-20T17:44:25.486Z,3.50
2023-01-20T17:46:52.591Z,3.50
2023-01-20T17:49:19.790Z,3.30
2023-01-20T17:51:46.901Z,3.40
2023-01-20T17:54:14.113Z,3.40
2023-01-20T17:56:41.472Z,3.40
2023-01-20T17:59:08.841Z,3.40
2023-01-20T18:01:35.976Z,3.30
2023-01-20T18:04:06.375Z,3.30
2023-01-20T18:06:36.894Z,3.20
2023-01-20T18:09:07.316Z,3.30
2023-01-20T18:11:36.696Z,3.40
2023-01-20T18:14:05.535Z,3.40
2023-01-20T18:16:38.891Z,3.40
2023-01-20T18:19:06.000Z,3.40
2023-01-20T18:21:37.947Z,3.30
2023-01-20T18:24:07.534Z,3.40
2023-01-20T18:26:36.318Z,3.40
2023-01-20T18:29:06.605Z,3.20
2023-01-20T18:31:35.161Z,3.40
2023-01-20T18:34:05.294Z,3.50
2023-01-20T18:36:40.823Z,3.50
2023-01-20T18:39:12.613Z,3.50
2023-01-20T18:41:40.144Z,3.30
2023-01-20T18:44:07.312Z,3.30
2023-01-20T18:46:34.790Z,3.30
2023-01-20T18:49:02.505Z,3.30
2023-01-20T18:51:30.484Z,3.30
2023-01-20T18:54:05.913Z,3.40
2023-01-20T18:56:33.580Z,3.30
2023-01-20T18:59:01.897Z,3.30
2023-01-20T19:01:35.150Z,3.20
2023-01-20T19:04:03.656Z,3.10
2023-01-20T19:06:35.731Z,3.10
2023-01-20T19:09:03.071Z,3.10
2023-01-20T19:11:32.171Z,3.10
2023-01-20T19:13:59.589Z,3.10
2023-01-20T19:16:33.641Z,3.10
2023-01-20T19:19:02.697Z,3.00
2023-01-20T19:21:32.567Z,3.00
2023-01-20T19:24:03.035Z,3.00
2023-01-20T19:26:30.278Z,3.00
2023-01-20T19:29:02.939Z,3.00
2023-01-20T19:31:31.990Z,3.10
2023-01-20T19:33:59.461Z,3.00
2023-01-20T19:36:26.720Z,3.10
2023-01-20T19:38:54.198Z,3.00
2023-01-20T19:41:25.905Z,3.00
2023-01-20T19:43:55.600Z,2.90
2023-01-20T19:46:24.534Z,3.00
2023-01-20T19:48:53.187Z,3.00
2023-01-20T19:51:20.776Z,3.00
2023-01-20T19:53:50.174Z,3.00
2023-01-20T19:56:19.383Z,2.90
2023-01-20T19:58:47.888Z,2.90
2023-01-20T20:01:20.600Z,2.80
2023-01-20T20:03:48.422Z,2.80
2023-01-20T20:06:38.828Z,2.70
2023-01-20T20:09:10.378Z,2.60
2023-01-20T20:11:38.199Z,2.60
2023-01-20T20:14:07.530Z,2.60
2023-01-20T20:16:36.788Z,2.50
2023-01-20T20:19:05.038Z,2.40
2023-01-20T20:21:32.167Z,2.40
2023-01-20T20:24:00.614Z,2.50
2023-01-20T20:26:30.803Z,2.40
2023-01-20T20:29:00.327Z,2.40
2023-01-20T20:31:31.490Z,2.40
2023-01-20T20:33:59.714Z,2.30
2023-01-20T20:36:31.242Z,2.30
2023-01-20T20:38:59.324Z,2.30
2023-01-20T20:41:29.279Z,2.20
2023-01-20T20:43:57.592Z,2.20
2023-01-20T20:46:26.097Z,2.20
2023-01-20T20:48:54.989Z,2.20
2023-01-20T20:51:23.872Z,2.20
2023-01-20T20:53:55.257Z,2.20
2023-01-20T20:56:23.260Z,2.10
2023-01-20T20:59:00.993Z,2.10
2023-01-20T21:01:31.225Z,2.10
2023-01-20T21:04:00.571Z,2.10
2023-01-20T21:06:28.796Z,2.00
2023-01-20T21:08:56.131Z,2.00
2023-01-20T21:11:24.274Z,2.00
2023-01-20T21:13:51.939Z,2.00
2023-01-20T21:16:23.378Z,1.90
2023-01-20T21:18:52.581Z,2.00
2023-01-20T21:21:20.809Z,1.90
2023-01-20T21:23:50.265Z,1.90
2023-01-20T21:26:17.811Z,1.90
2023-01-20T21:28:45.614Z,1.80
2023-01-20T21:31:15.758Z,1.80
2023-01-20T21:33:45.928Z,1.80
2023-01-20T21:36:13.528Z,1.80
2023-01-20T21:38:43.118Z,1.80
2023-01-20T21:41:11.053Z,1.80
2023-01-20T21:43:59.103Z,1.80
2023-01-20T21:46:29.727Z,1.90
2023-01-20T21:49:15.878Z,1.80
2023-01-20T21:52:01.594Z,1.90
2023-01-20T21:54:30.031Z,1.80
2023-01-20T21:56:57.692Z,2.00
2023-01-20T21:59:25.204Z,1.90
2023-01-20T22:01:52.882Z,1.80
2023-01-20T22:04:20.030Z,1.70
2023-01-20T22:06:47.082Z,1.70
2023-01-20T22:09:14.361Z,1.70
2023-01-20T22:11:41.463Z,1.70
2023-01-20T22:14:09.878Z,1.70
2023-01-20T22:16:37.043Z,1.60
2023-01-20T22:19:04.885Z,1.60
2023-01-20T22:21:33.126Z,1.60
2023-01-20T22:24:03.906Z,1.50
2023-01-20T22:26:31.133Z,1.50
2023-01-20T22:28:58.309Z,1.50
2023-01-20T22:31:25.532Z,1.50
2023-01-20T22:33:54.273Z,1.50
2023-01-20T22:36:22.738Z,1.50
2023-01-20T22:38:51.226Z,1.50
2023-01-20T22:41:19.321Z,1.50
2023-01-20T22:43:48.199Z,1.50
2023-01-20T22:46:20.689Z,1.50
2023-01-20T22:48:48.509Z,1.40
2023-01-20T22:51:21.516Z,1.40
2023-01-20T22:53:48.916Z,1.50
2023-01-20T22:56:24.660Z,1.40
2023-01-20T22:58:52.797Z,1.40
2023-01-20T23:01:21.935Z,1.40
2023-01-20T23:03:53.790Z,1.30
2023-01-20T23:06:21.383Z,1.30
2023-01-20T23:08:48.445Z,1.30
2023-01-20T23:11:17.193Z,1.20
2023-01-20T23:13:44.386Z,1.20
2023-01-20T23:16:15.225Z,1.20
2023-01-20T23:18:42.719Z,1.10
2023-01-20T23:21:10.559Z,1.10
2023-01-20T23:23:37.960Z,1.00
2023-01-20T23:26:12.078Z,1.00
2023-01-20T23:28:39.149Z,0.90
2023-01-20T23:31:09.233Z,1.00
2023-01-20T23:33:36.564Z,1.00
2023-01-20T23:36:09.491Z,1.00
2023-01-20T23:38:36.636Z,0.90
2023-01-20T23:41:04.327Z,1.00
2023-01-20T23:43:32.073Z,1.00
2023-01-20T23:46:05.009Z,1.00
2023-01-20T23:48:32.426Z,1.00
2023-01-20T23:51:02.720Z,1.00
2023-01-20T23:53:31.601Z,1.00
2023-01-20T23:56:09.923Z,1.00
2023-01-20T23:58:37.035Z,1.00
